Time;durP1;ratioP1;P1;durP2;ratioP2;P2;SDS_P1;SDS_P2;PMS_P1;PMS_P2;Temp;Humidity;BMP_temperature;BMP_pressure;BME280_temperature;BME280_humidity;BME280_pressure;Samples;Min_cycle;Max_cycle;Signal;HPM_P1;HPM_P2
2022/10/23 00:01:16;;;;;;;;;;;;;;;;;;4981778;28;19993;-90
2022/10/23 00:03:41;;;;;;;;;;;;;;;;;;4982519;28;19953;-88
2022/10/23 00:06:07;;;;;;;;;;;;;;;;;;5004436;28;20094;-89
2022/10/23 00:08:32;;;;;;;;;;;;;;;;;;4992333;28;19917;-88
2022/10/23 00:10:57;;;;;;;;;;;;;;;;;;4990888;28;20001;-88
2022/10/23 00:13:23;;;;;;;;;;;;;;;;;;5005669;28;19944;-88
2022/10/23 00:15:48;;;;;;;;;;;;;;;;;;5003505;28;20012;-89
2022/10/23 00:18:13;;;;;;;;;;;;;;;;;;5014529;28;19920;-89
2022/10/23 00:20:39;;;;;;;;;;;;;;;;;;5012811;28;19913;-87
2022/10/23 00:23:04;;;;;;;;;;;;;;;;;;4996437;28;19913;-88
2022/10/23 00:25:31;;;;;;;;;;;;;;;;;;4995983;28;19913;-88
2022/10/23 00:27:56;;;;;;;;;;;;;;;;;;4995614;28;19913;-89
2022/10/23 00:30:22;;;;;;;;;;;;;;;;;;5006266;28;19921;-89
2022/10/23 00:32:47;;;;;;;;;;;;;;;;;;4977487;28;19917;-90
2022/10/23 00:35:12;;;;;;;;;;;;;;;;;;4995848;28;19914;-89
2022/10/23 00:37:38;;;;;;;;;;;;;;;;;;4979688;28;19914;-89
2022/10/23 00:40:03;;;;;;;;;;;;;;;;;;4980059;28;19920;-89
2022/10/23 00:42:28;;;;;;;;;;;;;;;;;;4996128;28;20005;-89
2022/10/23 00:44:55;;;;;;;;;;;;;;;;;;4996331;28;19921;-90
2022/10/23 00:47:20;;;;;;;;;;;;;;;;;;4992164;28;19918;-88
2022/10/23 00:49:45;;;;;;;;;;;;;;;;;;5012089;28;19984;-88
2022/10/23 00:52:11;;;;;;;;;;;;;;;;;;5011569;28;19921;-89
2022/10/23 00:54:37;;;;;;;;;;;;;;;;;;4994811;28;19960;-88
2022/10/23 00:57:02;;;;;;;;;;;;;;;;;;4999351;28;19913;-89
2022/10/23 00:59:27;;;;;;;;;;;;;;;;;;4998275;28;20129;-89
2022/10/23 01:01:53;;;;;;;;;;;;;;;;;;5014439;28;19913;-91
2022/10/23 01:04:18;;;;;;;;;;;;;;;;;;4998977;28;19920;-91
2022/10/23 01:06:44;;;;;;;;;;;;;;;;;;5014562;28;19914;-91
2022/10/23 01:09:09;;;;;;;;;;;;;;;;;;4998374;28;20316;-90
2022/10/23 01:11:36;;;;;;;;;;;;;;;;;;4997307;28;21482;-90
2022/10/23 01:14:02;;;;;;;;;;;;;;;;;;4997243;28;19971;-90
2022/10/23 01:16:27;;;;;;;;;;;;;;;;;;4998280;28;19980;-91
2022/10/23 01:18:52;;;;;;;;;;;;;;;;;;4998485;28;19914;-91
2022/10/23 01:21:18;;;;;;;;;;;;;;;;;;4998342;28;19992;-91
2022/10/23 01:23:43;;;;;;;;;;;;;;;;;;4997535;28;19935;-90
2022/10/23 01:26:09;;;;;;;;;;;;;;;;;;4997665;28;20331;-90
2022/10/23 01:28:35;;;;;;;;;;;;;;;;;;4997895;28;19914;-91
2022/10/23 01:31:01;;;;;;;;;;;;;;;;;;5014219;28;20380;-90
2022/10/23 01:33:30;;;;;;;;;;;;;;;;;;4996571;28;19921;-90
2022/10/23 01:35:56;;;;;;;;;;;;;;;;;;4981349;28;20239;-91
2022/10/23 01:38:21;;;;;;;;;;;;;;;;;;4981519;28;19921;-90
2022/10/23 01:40:47;;;;;;;;;;;;;;;;;;4981229;28;19920;-89
2022/10/23 01:43:12;;;;;;;;;;;;;;;;;;4981550;28;19914;-90
2022/10/23 01:45:38;;;;;;;;;;;;;;;;;;4980961;28;19913;-90
2022/10/23 01:48:04;;;;;;;;;;;;;;;;;;4977814;28;19941;-89
2022/10/23 01:50:29;;;;;;;;;;;;;;;;;;4994405;28;19914;-90
2022/10/23 01:52:59;;;;;;;;;;;;;;;;;;4977151;28;19918;-91
2022/10/23 01:55:25;;;;;;;;;;;;;;;;;;4978149;28;19914;-88
2022/10/23 01:57:50;;;;;;;;;;;;;;;;;;4978434;28;20385;-89
2022/10/23 02:00:16;;;;;;;;;;;;;;;;;;4978014;28;19913;-90
2022/10/23 02:02:50;;;;;;;;;;;;;;;;;;4995127;28;20012;-90
2022/10/23 02:05:16;;;;;;;;;;;;;;;;;;4980985;28;19960;-91
2022/10/23 02:07:41;;;;;;;;;;;;;;;;;;4980535;28;20124;-91
2022/10/23 02:10:07;;;;;;;;;;;;;;;;;;5013463;28;19961;-91
2022/10/23 02:12:32;;;;;;;;;;;;;;;;;;4981848;28;19940;-89
2022/10/23 02:14:57;;;;;;;;;;;;;;;;;;4981293;28;19913;-89
2022/10/23 02:17:23;;;;;;;;;;;;;;;;;;4982010;28;19921;-91
2022/10/23 02:19:51;;;;;;;;;;;;;;;;;;4984781;28;19917;-92
2022/10/23 02:22:16;;;;;;;;;;;;;;;;;;4989543;28;19921;-90
2022/10/23 02:24:42;;;;;;;;;;;;;;;;;;4992394;28;19917;-89
2022/10/23 02:27:08;;;;;;;;;;;;;;;;;;4989911;28;19914;-90
2022/10/23 02:29:33;;;;;;;;;;;;;;;;;;4984915;28;19953;-88
2022/10/23 02:31:59;;;;;;;;;;;;;;;;;;4979499;28;19924;-90
2022/10/23 02:34:25;;;;;;;;;;;;;;;;;;4977993;28;19914;-90
2022/10/23 02:36:50;;;;;;;;;;;;;;;;;;4978893;28;20056;-89
2022/10/23 02:39:18;;;;;;;;;;;;;;;;;;4993810;28;20258;-90
2022/10/23 02:41:43;;;;;;;;;;;;;;;;;;4993876;28;19917;-89
2022/10/23 02:44:10;;;;;;;;;;;;;;;;;;4993911;28;19920;-91
2022/10/23 02:46:36;;;;;;;;;;;;;;;;;;4995156;28;20008;-90
2022/10/23 02:49:01;;;;;;;;;;;;;;;;;;4995546;28;19914;-90
2022/10/23 02:51:28;;;;;;;;;;;;;;;;;;4994198;28;19921;-88
2022/10/23 02:53:53;;;;;;;;;;;;;;;;;;4992792;28;20163;-90
2022/10/23 02:56:18;;;;;;;;;;;;;;;;;;4992917;28;20008;-90
2022/10/23 02:58:44;;;;;;;;;;;;;;;;;;4992811;28;19972;-90
2022/10/23 03:01:09;;;;;;;;;;;;;;;;;;4993011;28;19993;-89
2022/10/23 03:03:35;;;;;;;;;;;;;;;;;;4992831;28;19914;-88
2022/10/23 03:06:00;;;;;;;;;;;;;;;;;;4995851;28;19918;-90
2022/10/23 03:08:26;;;;;;;;;;;;;;;;;;5004856;28;20009;-91
2022/10/23 03:10:52;;;;;;;;;;;;;;;;;;5010703;23;19936;-82
2022/10/23 03:13:19;;;;;;;;;;;;;;;;;;5012291;28;20033;-83
2022/10/23 03:15:44;;;;;;;;;;;;;;;;;;5012357;28;19914;-84
2022/10/23 03:18:13;;;;;;;;;;;;;;;;;;5012405;28;20373;-83
2022/10/23 03:20:43;;;;;;;;;;;;;;;;;;4995482;28;20375;-84
2022/10/23 03:23:08;;;;;;;;;;;;;;;;;;5018350;28;19959;-83
2022/10/23 03:25:34;;;;;;;;;;;;;;;;;;5019151;28;20377;-83
2022/10/23 03:28:00;;;;;;;;;;;;;;;;;;4985492;28;20446;-82
2022/10/23 03:30:25;;;;;;;;;;;;;;;;;;5012486;28;19913;-82
2022/10/23 03:32:53;;;;;;;;;;;;;;;;;;4995277;28;20541;-84
2022/10/23 03:35:18;;;;;;;;;;;;;;;;;;4995821;28;19914;-83
2022/10/23 03:37:44;;;;;;;;;;;;;;;;;;4995037;28;19953;-83
2022/10/23 03:40:09;;;;;;;;;;;;;;;;;;5011627;28;19945;-83
2022/10/23 03:42:34;;;;;;;;;;;;;;;;;;4987085;28;19918;-82
2022/10/23 03:45:00;;;;;;;;;;;;;;;;;;4993154;28;19914;-84
2022/10/23 03:47:26;;;;;;;;;;;;;;;;;;4992148;28;19914;-82
2022/10/23 03:49:51;;;;;;;;;;;;;;;;;;4993080;28;19914;-82
2022/10/23 03:52:17;;;;;;;;;;;;;;;;;;5008628;28;20009;-81
2022/10/23 03:54:42;;;;;;;;;;;;;;;;;;4991665;28;19937;-82
2022/10/23 03:57:09;;;;;;;;;;;;;;;;;;4992092;28;19997;-83
2022/10/23 03:59:34;;;;;;;;;;;;;;;;;;5011193;28;20004;-83
2022/10/23 04:01:59;;;;;;;;;;;;;;;;;;4995182;28;19967;-82
2022/10/23 04:04:25;;;;;;;;;;;;;;;;;;5012407;28;19956;-83
2022/10/23 04:06:51;;;;;;;;;;;;;;;;;;5013128;28;19917;-82
2022/10/23 04:09:18;;;;;;;;;;;;;;;;;;5015178;28;19918;-82
2022/10/23 04:11:45;;;;;;;;;;;;;;;;;;5014954;28;19924;-82
2022/10/23 04:14:14;;;;;;;;;;;;;;;;;;5014787;28;19921;-81
2022/10/23 04:16:39;;;;;;;;;;;;;;;;;;5000338;28;19914;-82
2022/10/23 04:19:05;;;;;;;;;;;;;;;;;;5016178;28;19921;-82
2022/10/23 04:21:30;;;;;;;;;;;;;;;;;;5016234;28;19922;-82
2022/10/23 04:23:55;;;;;;;;;;;;;;;;;;5014832;28;19957;-83
2022/10/23 04:26:21;;;;;;;;;;;;;;;;;;4998926;28;19921;-82
2022/10/23 04:28:46;;;;;;;;;;;;;;;;;;5018994;28;19917;-82
2022/10/23 04:31:12;;;;;;;;;;;;;;;;;;5026744;28;20438;-81
2022/10/23 04:33:39;;;;;;;;;;;;;;;;;;4997564;28;19960;-81
2022/10/23 04:36:05;;;;;;;;;;;;;;;;;;5004344;28;19913;-81
2022/10/23 04:38:30;;;;;;;;;;;;;;;;;;4995401;28;19914;-82
2022/10/23 04:40:56;;;;;;;;;;;;;;;;;;4979116;28;19914;-82
2022/10/23 04:43:21;;;;;;;;;;;;;;;;;;4994627;28;19921;-83
2022/10/23 04:45:46;;;;;;;;;;;;;;;;;;4996191;28;20012;-83
2022/10/23 04:48:12;;;;;;;;;;;;;;;;;;4994737;28;20019;-82
2022/10/23 04:50:58;;;;;;;;;;;;;;;;;;4970641;28;19913;-82
2022/10/23 04:53:58;;;;;;;;;;;;;;;;;;5007257;28;19917;-82
2022/10/23 04:56:40;;;;;;;;;;;;;;;;;;5013869;28;19913;-82
2022/10/23 04:59:08;;;;;;;;;;;;;;;;;;5014380;28;19983;-82
2022/10/23 05:01:35;;;;;;;;;;;;;;;;;;5014189;28;19945;-82
2022/10/23 05:04:02;;;;;;;;;;;;;;;;;;4997566;28;19980;-82
2022/10/23 05:06:27;;;;;;;;;;;;;;;;;;4997737;28;20375;-82
2022/10/23 05:09:31;;;;;;;;;;;;;;;;;;4995537;28;19920;-82
2022/10/23 05:12:15;;;;;;;;;;;;;;;;;;4977688;28;20321;-82
2022/10/23 05:14:40;;;;;;;;;;;;;;;;;;4994228;28;19921;-83
2022/10/23 05:17:05;;;;;;;;;;;;;;;;;;4978521;28;19936;-82
2022/10/23 05:19:31;;;;;;;;;;;;;;;;;;4994063;28;20296;-81
2022/10/23 05:21:56;;;;;;;;;;;;;;;;;;4978821;28;20420;-80
2022/10/23 05:24:34;;;;;;;;;;;;;;;;;;4996672;28;20304;-83
2022/10/23 05:27:01;;;;;;;;;;;;;;;;;;4997958;28;19913;-81
2022/10/23 05:29:29;;;;;;;;;;;;;;;;;;4998181;28;19917;-83
2022/10/23 05:31:54;;;;;;;;;;;;;;;;;;4998006;28;20343;-83
2022/10/23 05:34:20;;;;;;;;;;;;;;;;;;4996990;28;19915;-83
2022/10/23 05:36:45;;;;;;;;;;;;;;;;;;5013462;28;19920;-84
2022/10/23 05:39:11;;;;;;;;;;;;;;;;;;4988490;28;19968;-83
2022/10/23 05:41:37;;;;;;;;;;;;;;;;;;4994059;28;20012;-82
2022/10/23 05:44:02;;;;;;;;;;;;;;;;;;4994641;28;20004;-84
2022/10/23 05:46:52;;;;;;;;;;;;;;;;;;4993765;28;19921;-82
2022/10/23 05:49:35;;;;;;;;;;;;;;;;;;4994912;28;19914;-82
2022/10/23 05:52:30;;;;;;;;;;;;;;;;;;4987620;28;19944;-82
2022/10/23 05:55:24;;;;;;;;;;;;;;;;;;4984164;28;20072;-83
2022/10/23 05:57:59;;;;;;;;;;;;;;;;;;5010617;28;19913;-81
2022/10/23 06:00:44;;;;;;;;;;;;;;;;;;4999891;28;19987;-82
2022/10/23 06:03:30;;;;;;;;;;;;;;;;;;5013854;28;19913;-82
2022/10/23 06:05:55;;;;;;;;;;;;;;;;;;4992097;28;19921;-83
2022/10/23 06:08:25;;;;;;;;;;;;;;;;;;4993207;28;19913;-84
2022/10/23 06:10:51;;;;;;;;;;;;;;;;;;4960486;28;20285;-83
2022/10/23 06:13:17;;;;;;;;;;;;;;;;;;4960484;28;19922;-85
2022/10/23 06:15:42;;;;;;;;;;;;;;;;;;4994453;28;19913;-85
2022/10/23 06:18:13;;;;;;;;;;;;;;;;;;4977630;28;19914;-85
2022/10/23 06:20:50;;;;;;;;;;;;;;;;;;5009686;28;19921;-85
2022/10/23 06:23:22;;;;;;;;;;;;;;;;;;4977401;28;19986;-85
2022/10/23 06:26:14;;;;;;;;;;;;;;;;;;4978675;28;20011;-85
2022/10/23 06:28:59;;;;;;;;;;;;;;;;;;4979124;28;19921;-86
2022/10/23 06:31:28;;;;;;;;;;;;;;;;;;5008721;28;19924;-83
2022/10/23 06:34:01;;;;;;;;;;;;;;;;;;5008484;28;19914;-84
2022/10/23 06:36:28;;;;;;;;;;;;;;;;;;4978089;28;19933;-84
2022/10/23 06:39:04;;;;;;;;;;;;;;;;;;5011334;28;19915;-85
2022/10/23 06:41:49;;;;;;;;;;;;;;;;;;5013108;28;19920;-84
2022/10/23 06:44:37;;;;;;;;;;;;;;;;;;5012243;28;19917;-83
2022/10/23 06:47:09;;;;;;;;;;;;;;;;;;5023805;28;19988;-81
2022/10/23 06:49:53;;;;;;;;;;;;;;;;;;5027375;28;19981;-83
2022/10/23 06:52:18;;;;;;;;;;;;;;;;;;5004197;28;19960;-83
2022/10/23 06:54:43;;;;;;;;;;;;;;;;;;5019654;28;20620;-83
2022/10/23 06:57:17;;;;;;;;;;;;;;;;;;4983697;28;19921;-83
2022/10/23 06:59:44;;;;;;;;;;;;;;;;;;4996788;28;19956;-83
2022/10/23 07:02:10;;;;;;;;;;;;;;;;;;5012458;28;20289;-82
2022/10/23 07:04:36;;;;;;;;;;;;;;;;;;4979766;28;19924;-82
2022/10/23 07:07:08;;;;;;;;;;;;;;;;;;4980684;28;19918;-83
2022/10/23 07:09:42;;;;;;;;;;;;;;;;;;4996642;28;20429;-83
2022/10/23 07:12:19;;;;;;;;;;;;;;;;;;5001616;28;19921;-82
2022/10/23 07:14:49;;;;;;;;;;;;;;;;;;5011973;28;19914;-83
2022/10/23 07:17:15;;;;;;;;;;;;;;;;;;4995504;28;20304;-82
2022/10/23 07:19:40;;;;;;;;;;;;;;;;;;5012005;28;19913;-84
2022/10/23 07:22:09;;;;;;;;;;;;;;;;;;5011989;28;19956;-82
2022/10/23 07:25:03;;;;;;;;;;;;;;;;;;5002545;28;20404;-83
2022/10/23 07:27:34;;;;;;;;;;;;;;;;;;5012060;28;19913;-83
2022/10/23 07:30:00;;;;;;;;;;;;;;;;;;5012431;28;19920;-83
2022/10/23 07:32:29;;;;;;;;;;;;;;;;;;5011018;28;20402;-82
2022/10/23 07:35:14;;;;;;;;;;;;;;;;;;5012810;28;19917;-81
2022/10/23 07:37:47;;;;;;;;;;;;;;;;;;5009604;28;19921;-81
2022/10/23 07:40:13;;;;;;;;;;;;;;;;;;4995401;28;19920;-81
2022/10/23 07:42:42;;;;;;;;;;;;;;;;;;5015291;28;19913;-81
2022/10/23 07:45:07;;;;;;;;;;;;;;;;;;4983095;28;20404;-80
2022/10/23 07:47:35;;;;;;;;;;;;;;;;;;4999313;28;19935;-81
2022/10/23 07:50:01;;;;;;;;;;;;;;;;;;5015534;28;19913;-80
2022/10/23 07:52:27;;;;;;;;;;;;;;;;;;5005790;28;19918;-85
2022/10/23 07:55:06;;;;;;;;;;;;;;;;;;5030125;28;19913;-86
2022/10/23 07:57:33;;;;;;;;;;;;;;;;;;5000758;28;19913;-84
2022/10/23 08:00:25;;;;;;;;;;;;;;;;;;5009732;28;19983;-76
2022/10/23 08:02:58;;;;;;;;;;;;;;;;;;4991352;28;19918;-75
2022/10/23 08:05:24;;;;;;;;;;;;;;;;;;5002527;28;20324;-76
2022/10/23 08:07:55;;;;;;;;;;;;;;;;;;4994694;28;19910;-75
2022/10/23 08:10:21;;;;;;;;;;;;;;;;;;5017930;28;19920;-76
2022/10/23 08:12:46;;;;;;;;;;;;;;;;;;5014920;28;19992;-75
2022/10/23 08:15:12;;;;;;;;;;;;;;;;;;4997893;28;20394;-77
2022/10/23 08:17:49;;;;;;;;;;;;;;;;;;4999414;28;20004;-76
2022/10/23 08:20:44;;;;;;;;;;;;;;;;;;5008944;28;19920;-75
2022/10/23 08:23:11;;;;;;;;;;;;;;;;;;4997626;28;19913;-76
2022/10/23 08:25:36;;;;;;;;;;;;;;;;;;4997951;28;20016;-76
2022/10/23 08:28:01;;;;;;;;;;;;;;;;;;4997456;28;19960;-76
2022/10/23 08:30:27;;;;;;;;;;;;;;;;;;4981388;28;20265;-76
2022/10/23 08:32:52;;;;;;;;;;;;;;;;;;4981089;28;19922;-76
2022/10/23 08:35:18;;;;;;;;;;;;;;;;;;5014206;28;20308;-76
2022/10/23 08:37:43;;;;;;;;;;;;;;;;;;5012652;28;19961;-75
2022/10/23 08:40:09;;;;;;;;;;;;;;;;;;4997456;28;20395;-75
2022/10/23 08:43:06;;;;;;;;;;;;;;;;;;4979374;28;19913;-74
2022/10/23 08:45:32;;;;;;;;;;;;;;;;;;5013901;28;20265;-76
2022/10/23 08:48:10;;;;;;;;;;;;;;;;;;4999119;28;19909;-76
2022/10/23 08:50:55;;;;;;;;;;;;;;;;;;5014780;28;19920;-76
2022/10/23 08:53:20;;;;;;;;;;;;;;;;;;5013891;28;20016;-77
2022/10/23 08:55:46;;;;;;;;;;;;;;;;;;5014733;28;19914;-76
2022/10/23 08:58:14;;;;;;;;;;;;;;;;;;5013546;28;19913;-76
2022/10/23 09:00:39;;;;;;;;;;;;;;;;;;5014890;28;19940;-75
2022/10/23 09:03:05;;;;;;;;;;;;;;;;;;5013098;28;19914;-75
2022/10/23 09:05:30;;;;;;;;;;;;;;;;;;5015137;28;19913;-83
2022/10/23 09:07:56;;;;;;;;;;;;;;;;;;5016004;28;20309;-88
2022/10/23 09:10:21;;;;;;;;;;;;;;;;;;5030861;28;20004;-86
2022/10/23 09:12:47;;;;;;;;;;;;;;;;;;5027211;23;19926;-78
2022/10/23 09:15:12;;;;;;;;;;;;;;;;;;5013098;28;19913;-78
2022/10/23 09:17:39;;;;;;;;;;;;;;;;;;4997484;28;20009;-77
2022/10/23 09:20:05;;;;;;;;;;;;;;;;;;4997128;28;19914;-78
2022/10/23 09:22:30;;;;;;;;;;;;;;;;;;4982552;28;20279;-77
2022/10/23 09:24:56;;;;;;;;;;;;;;;;;;4994905;28;19939;-77
2022/10/23 09:27:21;;;;;;;;;;;;;;;;;;4993432;28;19914;-77
2022/10/23 09:29:47;;;;;;;;;;;;;;;;;;4993717;28;19913;-77
2022/10/23 09:32:12;;;;;;;;;;;;;;;;;;4993314;28;19921;-77
2022/10/23 09:34:37;;;;;;;;;;;;;;;;;;4993520;28;19957;-77
2022/10/23 09:37:03;;;;;;;;;;;;;;;;;;4993311;28;20382;-77
2022/10/23 09:39:29;;;;;;;;;;;;;;;;;;4993557;28;19921;-78
2022/10/23 09:41:55;;;;;;;;;;;;;;;;;;4977153;28;20005;-76
2022/10/23 09:44:20;;;;;;;;;;;;;;;;;;4992553;28;20400;-78
2022/10/23 09:46:47;;;;;;;;;;;;;;;;;;4978177;28;19972;-77
2022/10/23 09:49:12;;;;;;;;;;;;;;;;;;4981356;28;19917;-80
2022/10/23 09:51:40;;;;;;;;;;;;;;;;;;4996642;28;19914;-79
2022/10/23 09:54:06;;;;;;;;;;;;;;;;;;4997067;28;19914;-80
2022/10/23 09:56:31;;;;;;;;;;;;;;;;;;4998875;28;20209;-79
2022/10/23 09:58:57;;;;;;;;;;;;;;;;;;4997389;28;19914;-78
2022/10/23 10:01:23;;;;;;;;;;;;;;;;;;4996490;28;19914;-77
2022/10/23 10:03:51;;;;;;;;;;;;;;;;;;4966094;28;19964;-78
2022/10/23 10:06:20;;;;;;;;;;;;;;;;;;4941753;28;19910;-78
2022/10/23 10:08:48;;;;;;;;;;;;;;;;;;4958239;28;20124;-78
2022/10/23 10:11:13;;;;;;;;;;;;;;;;;;4958507;28;19977;-77
2022/10/23 10:13:41;;;;;;;;;;;;;;;;;;4972781;28;19918;-78
2022/10/23 10:16:06;;;;;;;;;;;;;;;;;;4957575;28;19918;-78
2022/10/23 10:18:32;;;;;;;;;;;;;;;;;;4957078;28;19962;-79
2022/10/23 10:20:57;;;;;;;;;;;;;;;;;;4972998;28;19918;-78
2022/10/23 10:23:22;;;;;;;;;;;;;;;;;;4973919;28;20012;-78
2022/10/23 10:25:48;;;;;;;;;;;;;;;;;;4957702;28;20001;-79
2022/10/23 10:28:13;;;;;;;;;;;;;;;;;;4958969;28;19918;-78
2022/10/23 10:30:39;;;;;;;;;;;;;;;;;;4974273;28;20048;-78
2022/10/23 10:33:04;;;;;;;;;;;;;;;;;;4940474;28;20349;-78
2022/10/23 10:35:30;;;;;;;;;;;;;;;;;;4972748;28;19914;-78
2022/10/23 10:37:56;;;;;;;;;;;;;;;;;;4956547;28;20008;-78
2022/10/23 10:40:21;;;;;;;;;;;;;;;;;;4940647;28;20009;-78
2022/10/23 10:42:47;;;;;;;;;;;;;;;;;;4973267;28;19985;-77
2022/10/23 10:45:12;;;;;;;;;;;;;;;;;;4972611;28;19918;-77
2022/10/23 10:47:38;;;;;;;;;;;;;;;;;;4956211;28;19962;-77
2022/10/23 10:50:03;;;;;;;;;;;;;;;;;;4972466;28;19914;-78
2022/10/23 10:52:37;;;;;;;;;;;;;;;;;;4971706;28;19982;-78
2022/10/23 10:55:03;;;;;;;;;;;;;;;;;;4973446;28;20340;-78
2022/10/23 10:57:29;;;;;;;;;;;;;;;;;;4973534;28;19953;-79
2022/10/23 10:59:55;;;;;;;;;;;;;;;;;;4956333;28;19914;-78
2022/10/23 11:02:20;;;;;;;;;;;;;;;;;;4972076;28;20374;-78
2022/10/23 11:04:46;;;;;;;;;;;;;;;;;;4986328;28;19972;-78
2022/10/23 11:07:11;;;;;;;;;;;;;;;;;;4973523;28;19914;-78
2022/10/23 11:09:37;;;;;;;;;;;;;;;;;;4940569;28;19921;-78
2022/10/23 11:12:02;;;;;;;;;;;;;;;;;;4972031;28;20218;-79
2022/10/23 11:14:28;;;;;;;;;;;;;;;;;;4971913;28;19923;-78
2022/10/23 11:16:53;;;;;;;;;;;;;;;;;;4972177;28;19915;-79
2022/10/23 11:19:19;;;;;;;;;;;;;;;;;;4972022;28;19910;-79
2022/10/23 11:21:44;;;;;;;;;;;;;;;;;;4939951;28;19914;-79
2022/10/23 11:24:10;;;;;;;;;;;;;;;;;;4955724;28;19921;-80
2022/10/23 11:26:35;;;;;;;;;;;;;;;;;;4971947;28;19929;-79
2022/10/23 11:29:01;;;;;;;;;;;;;;;;;;4972199;28;19985;-80
2022/10/23 11:31:26;;;;;;;;;;;;;;;;;;4972182;28;20334;-79
2022/10/23 11:33:52;;;;;;;;;;;;;;;;;;4971380;28;19928;-79
2022/10/23 11:36:18;;;;;;;;;;;;;;;;;;4971920;28;19922;-79
2022/10/23 11:38:46;;;;;;;;;;;;;;;;;;4956200;28;19914;-79
2022/10/23 11:41:12;;;;;;;;;;;;;;;;;;4973130;28;19925;-79
2022/10/23 11:43:37;;;;;;;;;;;;;;;;;;4971800;28;19914;-80
2022/10/23 11:46:03;;;;;;;;;;;;;;;;;;4955908;28;19914;-78
2022/10/23 11:48:28;;;;;;;;;;;;;;;;;;4971777;28;19968;-80
2022/10/23 11:50:54;;;;;;;;;;;;;;;;;;4939933;28;20370;-80
2022/10/23 11:53:20;;;;;;;;;;;;;;;;;;4971132;28;19925;-79
2022/10/23 11:55:45;;;;;;;;;;;;;;;;;;4971508;28;19924;-78
2022/10/23 11:58:11;;;;;;;;;;;;;;;;;;4955832;28;19910;-79
2022/10/23 12:00:37;;;;;;;;;;;;;;;;;;4972980;28;19925;-79
2022/10/23 12:03:02;;;;;;;;;;;;;;;;;;4974595;28;19913;-80
2022/10/23 12:05:28;;;;;;;;;;;;;;;;;;4991221;28;19917;-79
2022/10/23 12:07:53;;;;;;;;;;;;;;;;;;4991155;28;19960;-78
2022/10/23 12:10:19;;;;;;;;;;;;;;;;;;4992228;28;19974;-79
2022/10/23 12:12:44;;;;;;;;;;;;;;;;;;4990392;28;19918;-79
2022/10/23 12:15:10;;;;;;;;;;;;;;;;;;4991215;28;20266;-80
2022/10/23 12:17:35;;;;;;;;;;;;;;;;;;4991642;28;19949;-79
2022/10/23 12:20:01;;;;;;;;;;;;;;;;;;4991454;28;20444;-79
2022/10/23 12:22:26;;;;;;;;;;;;;;;;;;4974552;28;20319;-80
2022/10/23 12:24:52;;;;;;;;;;;;;;;;;;4974953;28;20337;-79
2022/10/23 12:27:17;;;;;;;;;;;;;;;;;;4992490;28;19920;-79
2022/10/23 12:29:43;;;;;;;;;;;;;;;;;;4978286;28;20381;-79
2022/10/23 12:32:09;;;;;;;;;;;;;;;;;;4994375;28;19918;-79
2022/10/23 12:34:34;;;;;;;;;;;;;;;;;;4994174;28;19913;-78
2022/10/23 12:37:01;;;;;;;;;;;;;;;;;;4994332;28;19965;-78
2022/10/23 12:39:26;;;;;;;;;;;;;;;;;;4977903;28;20479;-80
2022/10/23 12:41:52;;;;;;;;;;;;;;;;;;4994244;28;19971;-79
2022/10/23 12:44:17;;;;;;;;;;;;;;;;;;4977946;28;20288;-80
2022/10/23 12:46:43;;;;;;;;;;;;;;;;;;4994501;28;19913;-78
2022/10/23 12:49:08;;;;;;;;;;;;;;;;;;4994236;28;19964;-78
2022/10/23 12:51:34;;;;;;;;;;;;;;;;;;4993987;28;20005;-79
2022/10/23 12:54:00;;;;;;;;;;;;;;;;;;4977696;28;19920;-79
2022/10/23 12:56:25;;;;;;;;;;;;;;;;;;4977583;28;20012;-79
2022/10/23 12:58:51;;;;;;;;;;;;;;;;;;4995096;28;19968;-79
2022/10/23 13:01:16;;;;;;;;;;;;;;;;;;4993801;28;20349;-78
2022/10/23 13:03:42;;;;;;;;;;;;;;;;;;4977333;28;19993;-78
2022/10/23 13:06:07;;;;;;;;;;;;;;;;;;4977248;28;20300;-79
2022/10/23 13:08:33;;;;;;;;;;;;;;;;;;4977435;28;19921;-78
2022/10/23 13:11:25;;;;;;;;;;;;;;;;;;4980390;28;19925;-79
2022/10/23 13:13:52;;;;;;;;;;;;;;;;;;4993316;28;19918;-78
2022/10/23 13:16:17;;;;;;;;;;;;;;;;;;4994820;28;20385;-77
2022/10/23 13:18:42;;;;;;;;;;;;;;;;;;4977654;28;20342;-79
2022/10/23 13:21:08;;;;;;;;;;;;;;;;;;4993438;28;19917;-78
2022/10/23 13:23:33;;;;;;;;;;;;;;;;;;4993257;28;20385;-80
2022/10/23 13:25:59;;;;;;;;;;;;;;;;;;4993784;28;20329;-79
2022/10/23 13:28:25;;;;;;;;;;;;;;;;;;4977519;28;19909;-79
2022/10/23 13:30:51;;;;;;;;;;;;;;;;;;4993220;28;19914;-78
2022/10/23 13:33:17;;;;;;;;;;;;;;;;;;4992760;28;20386;-78
2022/10/23 13:35:42;;;;;;;;;;;;;;;;;;4993542;28;19920;-79
2022/10/23 13:38:08;;;;;;;;;;;;;;;;;;4993232;28;20304;-79
2022/10/23 13:40:33;;;;;;;;;;;;;;;;;;4994034;28;19914;-78
2022/10/23 13:42:59;;;;;;;;;;;;;;;;;;4992787;28;20298;-79
2022/10/23 13:45:24;;;;;;;;;;;;;;;;;;4993273;28;19914;-79
2022/10/23 13:47:50;;;;;;;;;;;;;;;;;;4993304;28;19921;-79
2022/10/23 13:50:15;;;;;;;;;;;;;;;;;;4992941;28;19917;-79
2022/10/23 13:52:40;;;;;;;;;;;;;;;;;;4993635;28;19966;-80
2022/10/23 13:55:06;;;;;;;;;;;;;;;;;;4976853;28;19914;-78
2022/10/23 13:57:31;;;;;;;;;;;;;;;;;;4976586;28;20281;-79
2022/10/23 13:59:57;;;;;;;;;;;;;;;;;;4993148;28;19921;-79
2022/10/23 14:02:23;;;;;;;;;;;;;;;;;;4992343;28;20331;-81
2022/10/23 14:04:49;;;;;;;;;;;;;;;;;;4975786;28;19914;-79
2022/10/23 14:07:14;;;;;;;;;;;;;;;;;;4957405;28;20448;-79
2022/10/23 14:09:40;;;;;;;;;;;;;;;;;;4974723;28;19914;-80
2022/10/23 14:12:05;;;;;;;;;;;;;;;;;;4974240;28;20266;-79
2022/10/23 14:14:30;;;;;;;;;;;;;;;;;;4973620;28;20008;-80
2022/10/23 14:16:56;;;;;;;;;;;;;;;;;;4956979;28;19922;-79
2022/10/23 14:19:21;;;;;;;;;;;;;;;;;;4973220;28;20413;-80
2022/10/23 14:21:47;;;;;;;;;;;;;;;;;;4974070;28;19914;-79
2022/10/23 14:24:13;;;;;;;;;;;;;;;;;;4956385;28;20305;-79
2022/10/23 14:26:42;;;;;;;;;;;;;;;;;;4972851;28;19959;-79
2022/10/23 14:29:07;;;;;;;;;;;;;;;;;;4972918;28;19915;-79
2022/10/23 14:31:33;;;;;;;;;;;;;;;;;;4973869;28;20456;-79
2022/10/23 14:34:00;;;;;;;;;;;;;;;;;;4972074;28;19941;-79
2022/10/23 14:36:25;;;;;;;;;;;;;;;;;;4972423;28;19921;-79
2022/10/23 14:38:51;;;;;;;;;;;;;;;;;;4972789;28;20298;-81
2022/10/23 14:41:17;;;;;;;;;;;;;;;;;;4956525;28;20027;-80
2022/10/23 14:43:42;;;;;;;;;;;;;;;;;;4940796;28;19914;-80
2022/10/23 14:46:08;;;;;;;;;;;;;;;;;;4956691;28;19921;-80
2022/10/23 14:48:36;;;;;;;;;;;;;;;;;;4973678;28;19914;-79
2022/10/23 14:51:01;;;;;;;;;;;;;;;;;;4973069;28;20382;-79
2022/10/23 14:53:27;;;;;;;;;;;;;;;;;;4972117;28;19918;-79
2022/10/23 14:55:52;;;;;;;;;;;;;;;;;;4972194;28;19918;-79
2022/10/23 14:58:20;;;;;;;;;;;;;;;;;;4973658;28;19915;-79
2022/10/23 15:00:46;;;;;;;;;;;;;;;;;;4972585;28;19922;-79
2022/10/23 15:03:11;;;;;;;;;;;;;;;;;;4957455;28;20021;-80
2022/10/23 15:05:37;;;;;;;;;;;;;;;;;;4956183;28;20341;-79
2022/10/23 15:08:03;;;;;;;;;;;;;;;;;;4972167;28;19914;-80
2022/10/23 15:10:28;;;;;;;;;;;;;;;;;;4956049;28;20290;-79
2022/10/23 15:12:54;;;;;;;;;;;;;;;;;;4955695;28;20278;-80
2022/10/23 15:15:21;;;;;;;;;;;;;;;;;;4973360;28;19914;-80
2022/10/23 15:17:46;;;;;;;;;;;;;;;;;;4971971;28;20459;-79
2022/10/23 15:20:12;;;;;;;;;;;;;;;;;;4939979;28;20016;-79
2022/10/23 15:22:37;;;;;;;;;;;;;;;;;;4955687;28;19937;-79
2022/10/23 15:25:03;;;;;;;;;;;;;;;;;;4972001;28;20223;-79
2022/10/23 15:27:28;;;;;;;;;;;;;;;;;;4971905;28;20301;-81
2022/10/23 15:29:54;;;;;;;;;;;;;;;;;;4956222;28;20069;-78
2022/10/23 15:32:19;;;;;;;;;;;;;;;;;;4972611;28;19961;-79
2022/10/23 15:34:48;;;;;;;;;;;;;;;;;;4956515;28;20016;-79
2022/10/23 15:37:14;;;;;;;;;;;;;;;;;;4971820;28;20000;-80
2022/10/23 15:39:39;;;;;;;;;;;;;;;;;;4971782;28;20307;-80
2022/10/23 15:42:05;;;;;;;;;;;;;;;;;;4987866;28;20345;-80
2022/10/23 15:44:30;;;;;;;;;;;;;;;;;;4972617;28;20329;-80
2022/10/23 15:46:56;;;;;;;;;;;;;;;;;;4971653;28;19918;-80
2022/10/23 15:49:21;;;;;;;;;;;;;;;;;;4987860;28;20259;-80
2022/10/23 15:51:46;;;;;;;;;;;;;;;;;;4987805;28;20019;-80
2022/10/23 15:54:15;;;;;;;;;;;;;;;;;;4971326;28;20362;-80
2022/10/23 15:56:40;;;;;;;;;;;;;;;;;;4971482;28;19922;-80
2022/10/23 15:59:06;;;;;;;;;;;;;;;;;;4955705;28;19918;-80
2022/10/23 16:01:31;;;;;;;;;;;;;;;;;;4971206;28;20290;-79
2022/10/23 16:03:57;;;;;;;;;;;;;;;;;;4975850;28;19937;-79
2022/10/23 16:06:22;;;;;;;;;;;;;;;;;;4958909;28;19937;-80
2022/10/23 16:08:48;;;;;;;;;;;;;;;;;;4942983;28;19922;-80
2022/10/23 16:11:13;;;;;;;;;;;;;;;;;;4975306;28;20206;-79
2022/10/23 16:13:39;;;;;;;;;;;;;;;;;;4958677;28;20389;-80
2022/10/23 16:16:04;;;;;;;;;;;;;;;;;;4959090;28;19915;-80
2022/10/23 16:18:30;;;;;;;;;;;;;;;;;;4974862;28;19963;-79
2022/10/23 16:20:55;;;;;;;;;;;;;;;;;;4976201;28;20377;-80
2022/10/23 16:23:21;;;;;;;;;;;;;;;;;;4942668;28;19920;-79
2022/10/23 16:25:46;;;;;;;;;;;;;;;;;;4975177;28;20300;-79
2022/10/23 16:28:11;;;;;;;;;;;;;;;;;;4976310;28;20401;-80
2022/10/23 16:30:37;;;;;;;;;;;;;;;;;;4959018;28;20393;-80
2022/10/23 16:33:03;;;;;;;;;;;;;;;;;;4974383;28;20333;-79
2022/10/23 16:35:29;;;;;;;;;;;;;;;;;;4976151;28;20290;-80
2022/10/23 16:38:04;;;;;;;;;;;;;;;;;;4974946;28;19921;-79
2022/10/23 16:40:30;;;;;;;;;;;;;;;;;;4975156;28;20286;-80
2022/10/23 16:43:14;;;;;;;;;;;;;;;;;;4975457;28;19914;-79
2022/10/23 16:45:57;;;;;;;;;;;;;;;;;;4974784;28;19914;-79
2022/10/23 16:48:22;;;;;;;;;;;;;;;;;;4975710;28;20244;-79